Terminal Aerodrome Forecast
Issued by NWS

Home | Current Version | Previous Version | Graphics & Text | Print | Product List | Glossary On
Versions: 1 2 3 4 5 6 7 8 9 10 11 12 13
000
FTUS43 KICT 221732
TAFRSL
TAF
KRSL 221732Z 2218/2318 19022G32KT P6SM SCT080
     FM231000 18015KT P6SM SCT070
     FM231300 19018G25KT P6SM BKN070=

USA.gov is the U.S. government's official web portal to all federal, state and local government web resources and services.